sensor_id;sensor_type;location;lat;lon;timestamp;temperature;humidity
14182;DHT22;7171;50.936;6.764;2023-06-05T00:01:07;18.30;72.00
14182;DHT22;7171;50.936;6.764;2023-06-05T00:03:34;18.20;72.30
14182;DHT22;7171;50.936;6.764;2023-06-05T00:06:02;18.00;72.10
14182;DHT22;7171;50.936;6.764;2023-06-05T00:08:29;18.20;83.50
14182;DHT22;7171;50.936;6.764;2023-06-05T00:10:56;18.00;72.00
14182;DHT22;7171;50.936;6.764;2023-06-05T00:13:22;18.00;72.80
14182;DHT22;7171;50.936;6.764;2023-06-05T00:15:51;17.90;72.80
14182;DHT22;7171;50.936;6.764;2023-06-05T00:18:18;17.90;72.90
14182;DHT22;7171;50.936;6.764;2023-06-05T00:20:45;17.90;72.80
14182;DHT22;7171;50.936;6.764;2023-06-05T00:23:12;17.80;72.90
14182;DHT22;7171;50.936;6.764;2023-06-05T00:25:39;17.80;72.70
14182;DHT22;7171;50.936;6.764;2023-06-05T00:28:06;17.80;72.90
14182;DHT22;7171;50.936;6.764;2023-06-05T00:30:33;17.80;73.00
14182;DHT22;7171;50.936;6.764;2023-06-05T00:33:02;17.80;73.00
14182;DHT22;7171;50.936;6.764;2023-06-05T00:35:30;17.80;73.10
14182;DHT22;7171;50.936;6.764;2023-06-05T00:37:57;17.80;73.10
14182;DHT22;7171;50.936;6.764;2023-06-05T00:40:23;17.80;73.20
14182;DHT22;7171;50.936;6.764;2023-06-05T00:42:50;17.70;73.10
14182;DHT22;7171;50.936;6.764;2023-06-05T00:45:17;17.70;73.10
14182;DHT22;7171;50.936;6.764;2023-06-05T00:47:44;17.70;73.10
14182;DHT22;7171;50.936;6.764;2023-06-05T00:50:13;17.70;73.30
14182;DHT22;7171;50.936;6.764;2023-06-05T00:52:41;17.70;75.50
14182;DHT22;7171;50.936;6.764;2023-06-05T00:55:09;17.60;73.70
14182;DHT22;7171;50.936;6.764;2023-06-05T00:57:36;17.50;76.10
14182;DHT22;7171;50.936;6.764;2023-06-05T01:00:05;17.60;75.90
14182;DHT22;7171;50.936;6.764;2023-06-05T01:02:34;17.60;72.90
14182;DHT22;7171;50.936;6.764;2023-06-05T01:05:02;17.50;73.50
14182;DHT22;7171;50.936;6.764;2023-06-05T01:07:31;17.50;73.70
14182;DHT22;7171;50.936;6.764;2023-06-05T01:09:59;17.30;73.60
14182;DHT22;7171;50.936;6.764;2023-06-05T01:12:30;17.80;73.90
14182;DHT22;7171;50.936;6.764;2023-06-05T01:15:01;17.40;73.60
14182;DHT22;7171;50.936;6.764;2023-06-05T01:17:31;17.30;73.60
14182;DHT22;7171;50.936;6.764;2023-06-05T01:19:59;17.30;73.60
14182;DHT22;7171;50.936;6.764;2023-06-05T01:22:36;17.30;74.20
14182;DHT22;7171;50.936;6.764;2023-06-05T01:25:07;17.30;73.90
14182;DHT22;7171;50.936;6.764;2023-06-05T01:27:41;17.20;73.70
14182;DHT22;7171;50.936;6.764;2023-06-05T01:30:12;17.20;73.70
14182;DHT22;7171;50.936;6.764;2023-06-05T01:32:49;17.20;73.90
14182;DHT22;7171;50.936;6.764;2023-06-05T01:35:19;17.10;74.20
14182;DHT22;7171;50.936;6.764;2023-06-05T01:37:48;17.10;75.40
14182;DHT22;7171;50.936;6.764;2023-06-05T01:40:19;17.00;74.10
14182;DHT22;7171;50.936;6.764;2023-06-05T01:42:47;17.00;74.40
14182;DHT22;7171;50.936;6.764;2023-06-05T01:45:15;17.00;74.50
14182;DHT22;7171;50.936;6.764;2023-06-05T01:47:42;16.90;74.70
14182;DHT22;7171;50.936;6.764;2023-06-05T01:50:10;16.90;74.70
14182;DHT22;7171;50.936;6.764;2023-06-05T01:52:38;16.90;75.30
14182;DHT22;7171;50.936;6.764;2023-06-05T01:55:07;16.90;78.70
14182;DHT22;7171;50.936;6.764;2023-06-05T01:57:41;16.70;79.40
14182;DHT22;7171;50.936;6.764;2023-06-05T02:02:38;16.70;75.20
14182;DHT22;7171;50.936;6.764;2023-06-05T02:05:07;16.70;76.20
14182;DHT22;7171;50.936;6.764;2023-06-05T02:07:35;16.60;77.20
14182;DHT22;7171;50.936;6.764;2023-06-05T02:10:04;16.60;81.30
14182;DHT22;7171;50.936;6.764;2023-06-05T02:12:31;16.60;91.60
14182;DHT22;7171;50.936;6.764;2023-06-05T02:14:59;16.60;93.40
14182;DHT22;7171;50.936;6.764;2023-06-05T02:19:54;16.40;96.70
14182;DHT22;7171;50.936;6.764;2023-06-05T02:22:21;16.30;94.90
14182;DHT22;7171;50.936;6.764;2023-06-05T02:24:49;16.40;95.40
14182;DHT22;7171;50.936;6.764;2023-06-05T02:37:18;16.10;84.50
14182;DHT22;7171;50.936;6.764;2023-06-05T02:39:48;16.20;81.30
14182;DHT22;7171;50.936;6.764;2023-06-05T02:42:14;16.10;81.00
14182;DHT22;7171;50.936;6.764;2023-06-05T02:44:42;16.10;81.50
14182;DHT22;7171;50.936;6.764;2023-06-05T02:47:09;16.10;81.80
14182;DHT22;7171;50.936;6.764;2023-06-05T02:49:37;16.00;82.60
14182;DHT22;7171;50.936;6.764;2023-06-05T02:52:04;16.00;83.30
14182;DHT22;7171;50.936;6.764;2023-06-05T02:54:31;16.00;83.20
14182;DHT22;7171;50.936;6.764;2023-06-05T02:56:58;16.00;83.30
14182;DHT22;7171;50.936;6.764;2023-06-05T02:59:25;16.00;83.60
14182;DHT22;7171;50.936;6.764;2023-06-05T03:01:52;15.90;84.50
14182;DHT22;7171;50.936;6.764;2023-06-05T03:04:19;15.90;86.90
14182;DHT22;7171;50.936;6.764;2023-06-05T03:06:50;16.30;84.90
14182;DHT22;7171;50.936;6.764;2023-06-05T03:09:18;15.80;87.50
14182;DHT22;7171;50.936;6.764;2023-06-05T03:11:45;16.00;94.20
14182;DHT22;7171;50.936;6.764;2023-06-05T03:14:12;16.00;86.80
14182;DHT22;7171;50.936;6.764;2023-06-05T03:16:38;16.10;86.20
14182;DHT22;7171;50.936;6.764;2023-06-05T03:21:38;15.70;85.50
14182;DHT22;7171;50.936;6.764;2023-06-05T03:24:09;15.70;85.80
14182;DHT22;7171;50.936;6.764;2023-06-05T03:26:38;15.70;86.30
14182;DHT22;7171;50.936;6.764;2023-06-05T03:29:06;15.60;87.20
14182;DHT22;7171;50.936;6.764;2023-06-05T03:31:32;15.60;87.10
14182;DHT22;7171;50.936;6.764;2023-06-05T03:33:59;15.60;87.30
14182;DHT22;7171;50.936;6.764;2023-06-05T03:36:26;15.60;87.30
14182;DHT22;7171;50.936;6.764;2023-06-05T03:38:53;15.50;88.00
14182;DHT22;7171;50.936;6.764;2023-06-05T03:41:22;15.50;88.10
14182;DHT22;7171;50.936;6.764;2023-06-05T03:43:49;15.50;88.10
14182;DHT22;7171;50.936;6.764;2023-06-05T03:46:16;15.50;88.50
14182;DHT22;7171;50.936;6.764;2023-06-05T03:48:45;15.50;88.90
14182;DHT22;7171;50.936;6.764;2023-06-05T03:51:12;15.40;88.90
14182;DHT22;7171;50.936;6.764;2023-06-05T03:53:43;15.40;89.60
14182;DHT22;7171;50.936;6.764;2023-06-05T03:56:10;15.40;89.60
14182;DHT22;7171;50.936;6.764;2023-06-05T03:58:39;15.40;89.40
14182;DHT22;7171;50.936;6.764;2023-06-05T04:01:07;15.30;90.20
14182;DHT22;7171;50.936;6.764;2023-06-05T04:03:34;15.30;90.10
14182;DHT22;7171;50.936;6.764;2023-06-05T04:06:02;15.30;90.00
14182;DHT22;7171;50.936;6.764;2023-06-05T04:08:30;15.30;90.10
14182;DHT22;7171;50.936;6.764;2023-06-05T04:10:57;15.30;90.50
14182;DHT22;7171;50.936;6.764;2023-06-05T04:13:24;15.30;90.40
14182;DHT22;7171;50.936;6.764;2023-06-05T04:15:53;15.30;90.20
14182;DHT22;7171;50.936;6.764;2023-06-05T04:18:20;15.30;90.30
14182;DHT22;7171;50.936;6.764;2023-06-05T04:20:47;15.30;90.50
14182;DHT22;7171;50.936;6.764;2023-06-05T04:23:14;15.30;90.60
14182;DHT22;7171;50.936;6.764;2023-06-05T04:25:41;15.30;90.80
14182;DHT22;7171;50.936;6.764;2023-06-05T04:28:11;15.30;90.80
14182;DHT22;7171;50.936;6.764;2023-06-05T04:30:38;15.30;90.80
14182;DHT22;7171;50.936;6.764;2023-06-05T04:33:06;15.30;90.70
14182;DHT22;7171;50.936;6.764;2023-06-05T04:35:33;15.30;90.80
14182;DHT22;7171;50.936;6.764;2023-06-05T04:38:00;15.30;90.80
14182;DHT22;7171;50.936;6.764;2023-06-05T04:40:27;15.30;91.10
14182;DHT22;7171;50.936;6.764;2023-06-05T04:42:54;15.30;91.20
14182;DHT22;7171;50.936;6.764;2023-06-05T04:45:22;15.30;91.30
14182;DHT22;7171;50.936;6.764;2023-06-05T04:47:50;15.30;91.40
14182;DHT22;7171;50.936;6.764;2023-06-05T04:50:23;15.30;91.60
14182;DHT22;7171;50.936;6.764;2023-06-05T04:52:54;15.30;91.30
14182;DHT22;7171;50.936;6.764;2023-06-05T04:55:21;15.30;91.60
14182;DHT22;7171;50.936;6.764;2023-06-05T04:57:48;15.30;91.80
14182;DHT22;7171;50.936;6.764;2023-06-05T05:00:15;15.30;91.70
14182;DHT22;7171;50.936;6.764;2023-06-05T05:02:42;15.30;91.60
14182;DHT22;7171;50.936;6.764;2023-06-05T05:05:09;15.30;91.90
14182;DHT22;7171;50.936;6.764;2023-06-05T05:07:40;15.40;92.10
14182;DHT22;7171;50.936;6.764;2023-06-05T05:10:08;15.30;92.30
14182;DHT22;7171;50.936;6.764;2023-06-05T05:12:35;15.40;92.50
14182;DHT22;7171;50.936;6.764;2023-06-05T05:15:02;15.40;92.50
14182;DHT22;7171;50.936;6.764;2023-06-05T05:17:30;15.40;92.50
14182;DHT22;7171;50.936;6.764;2023-06-05T05:19:56;15.40;92.60
14182;DHT22;7171;50.936;6.764;2023-06-05T05:22:23;15.40;92.80
14182;DHT22;7171;50.936;6.764;2023-06-05T05:24:52;15.40;93.00
14182;DHT22;7171;50.936;6.764;2023-06-05T05:27:19;15.40;93.20
14182;DHT22;7171;50.936;6.764;2023-06-05T05:29:45;15.40;93.30
14182;DHT22;7171;50.936;6.764;2023-06-05T05:32:12;15.40;93.10
14182;DHT22;7171;50.936;6.764;2023-06-05T05:34:39;15.40;93.10
14182;DHT22;7171;50.936;6.764;2023-06-05T05:37:06;15.50;93.10
14182;DHT22;7171;50.936;6.764;2023-06-05T05:39:32;15.50;93.40
14182;DHT22;7171;50.936;6.764;2023-06-05T05:42:00;15.50;93.40
14182;DHT22;7171;50.936;6.764;2023-06-05T05:44:27;15.60;93.50
14182;DHT22;7171;50.936;6.764;2023-06-05T05:46:54;15.60;93.50
14182;DHT22;7171;50.936;6.764;2023-06-05T05:49:21;15.70;93.50
14182;DHT22;7171;50.936;6.764;2023-06-05T05:51:49;15.70;93.70
14182;DHT22;7171;50.936;6.764;2023-06-05T05:54:15;15.70;93.60
14182;DHT22;7171;50.936;6.764;2023-06-05T05:56:42;15.80;93.70
14182;DHT22;7171;50.936;6.764;2023-06-05T05:59:10;15.80;93.90
14182;DHT22;7171;50.936;6.764;2023-06-05T06:01:37;15.80;93.90
14182;DHT22;7171;50.936;6.764;2023-06-05T06:04:04;15.80;94.00
14182;DHT22;7171;50.936;6.764;2023-06-05T06:06:31;15.90;93.90
14182;DHT22;7171;50.936;6.764;2023-06-05T06:08:58;15.90;94.00
14182;DHT22;7171;50.936;6.764;2023-06-05T06:11:26;16.00;94.10
14182;DHT22;7171;50.936;6.764;2023-06-05T06:13:53;16.00;94.10
14182;DHT22;7171;50.936;6.764;2023-06-05T06:16:21;16.10;94.00
14182;DHT22;7171;50.936;6.764;2023-06-05T06:18:47;16.10;94.10
14182;DHT22;7171;50.936;6.764;2023-06-05T06:21:14;16.20;94.20
14182;DHT22;7171;50.936;6.764;2023-06-05T06:23:41;16.30;94.30
14182;DHT22;7171;50.936;6.764;2023-06-05T06:26:10;16.30;94.30
14182;DHT22;7171;50.936;6.764;2023-06-05T06:28:37;16.40;94.40
14182;DHT22;7171;50.936;6.764;2023-06-05T06:31:03;16.50;94.30
14182;DHT22;7171;50.936;6.764;2023-06-05T06:33:32;16.60;94.50
14182;DHT22;7171;50.936;6.764;2023-06-05T06:36:02;16.60;94.40
14182;DHT22;7171;50.936;6.764;2023-06-05T06:38:29;15.70;93.90
14182;DHT22;7171;50.936;6.764;2023-06-05T06:40:57;16.70;94.20
14182;DHT22;7171;50.936;6.764;2023-06-05T06:43:24;16.80;94.30
14182;DHT22;7171;50.936;6.764;2023-06-05T06:45:52;17.70;94.70
14182;DHT22;7171;50.936;6.764;2023-06-05T06:48:19;17.00;94.40
14182;DHT22;7171;50.936;6.764;2023-06-05T06:50:47;17.00;94.40
14182;DHT22;7171;50.936;6.764;2023-06-05T06:53:14;17.10;94.60
14182;DHT22;7171;50.936;6.764;2023-06-05T06:55:41;17.20;94.30
14182;DHT22;7171;50.936;6.764;2023-06-05T06:58:08;17.30;94.70
14182;DHT22;7171;50.936;6.764;2023-06-05T07:00:34;17.30;94.70
14182;DHT22;7171;50.936;6.764;2023-06-05T07:03:01;17.40;94.10
14182;DHT22;7171;50.936;6.764;2023-06-05T07:05:28;17.50;93.80
14182;DHT22;7171;50.936;6.764;2023-06-05T07:07:56;17.60;95.50
14182;DHT22;7171;50.936;6.764;2023-06-05T07:10:26;17.60;93.80
14182;DHT22;7171;50.936;6.764;2023-06-05T07:12:53;17.70;96.30
14182;DHT22;7171;50.936;6.764;2023-06-05T07:15:20;17.80;95.70
14182;DHT22;7171;50.936;6.764;2023-06-05T07:20:14;17.80;93.50
14182;DHT22;7171;50.936;6.764;2023-06-05T07:22:42;17.90;93.80
14182;DHT22;7171;50.936;6.764;2023-06-05T07:25:11;17.90;93.70
14182;DHT22;7171;50.936;6.764;2023-06-05T07:27:39;18.00;93.60
14182;DHT22;7171;50.936;6.764;2023-06-05T07:30:07;18.10;93.60
14182;DHT22;7171;50.936;6.764;2023-06-05T07:32:34;18.10;93.60
14182;DHT22;7171;50.936;6.764;2023-06-05T07:35:01;18.20;93.30
14182;DHT22;7171;50.936;6.764;2023-06-05T07:37:27;18.10;93.00
14182;DHT22;7171;50.936;6.764;2023-06-05T07:39:54;18.20;93.20
14182;DHT22;7171;50.936;6.764;2023-06-05T07:42:22;18.30;93.10
14182;DHT22;7171;50.936;6.764;2023-06-05T07:44:49;18.40;93.10
14182;DHT22;7171;50.936;6.764;2023-06-05T07:47:16;18.40;93.00
14182;DHT22;7171;50.936;6.764;2023-06-05T07:49:43;18.50;93.00
14182;DHT22;7171;50.936;6.764;2023-06-05T07:54:37;18.60;92.60
14182;DHT22;7171;50.936;6.764;2023-06-05T07:57:04;18.70;92.90
14182;DHT22;7171;50.936;6.764;2023-06-05T07:59:35;18.70;92.60
14182;DHT22;7171;50.936;6.764;2023-06-05T08:02:02;18.80;92.70
14182;DHT22;7171;50.936;6.764;2023-06-05T08:04:30;18.90;92.80
14182;DHT22;7171;50.936;6.764;2023-06-05T08:06:57;18.90;92.80
14182;DHT22;7171;50.936;6.764;2023-06-05T08:09:24;19.00;92.40
14182;DHT22;7171;50.936;6.764;2023-06-05T08:11:51;19.00;92.40
14182;DHT22;7171;50.936;6.764;2023-06-05T08:14:18;19.10;92.40
14182;DHT22;7171;50.936;6.764;2023-06-05T08:16:46;19.10;92.40
14182;DHT22;7171;50.936;6.764;2023-06-05T08:21:40;19.30;92.40
14182;DHT22;7171;50.936;6.764;2023-06-05T08:24:07;19.30;92.50
14182;DHT22;7171;50.936;6.764;2023-06-05T08:26:33;19.40;92.60
14182;DHT22;7171;50.936;6.764;2023-06-05T08:29:01;19.50;92.40
14182;DHT22;7171;50.936;6.764;2023-06-05T08:31:28;19.50;92.30
14182;DHT22;7171;50.936;6.764;2023-06-05T08:33:56;19.60;92.40
14182;DHT22;7171;50.936;6.764;2023-06-05T08:36:23;19.60;92.30
14182;DHT22;7171;50.936;6.764;2023-06-05T08:38:50;19.80;92.10
14182;DHT22;7171;50.936;6.764;2023-06-05T08:41:17;19.80;92.30
14182;DHT22;7171;50.936;6.764;2023-06-05T08:43:44;19.80;92.20
14182;DHT22;7171;50.936;6.764;2023-06-05T08:46:12;19.90;92.30
14182;DHT22;7171;50.936;6.764;2023-06-05T08:48:42;20.00;92.20
14182;DHT22;7171;50.936;6.764;2023-06-05T08:51:12;20.10;92.20
14182;DHT22;7171;50.936;6.764;2023-06-05T08:53:41;20.10;92.00
14182;DHT22;7171;50.936;6.764;2023-06-05T08:56:10;20.20;92.30
14182;DHT22;7171;50.936;6.764;2023-06-05T08:58:37;20.30;92.50
14182;DHT22;7171;50.936;6.764;2023-06-05T09:01:05;20.40;92.60
14182;DHT22;7171;50.936;6.764;2023-06-05T09:03:33;20.50;92.40
14182;DHT22;7171;50.936;6.764;2023-06-05T09:05:59;20.60;92.50
14182;DHT22;7171;50.936;6.764;2023-06-05T09:08:30;20.70;92.10
14182;DHT22;7171;50.936;6.764;2023-06-05T09:11:21;20.70;92.60
14182;DHT22;7171;50.936;6.764;2023-06-05T09:13:47;20.90;92.20
14182;DHT22;7171;50.936;6.764;2023-06-05T09:16:14;21.00;92.10
14182;DHT22;7171;50.936;6.764;2023-06-05T09:18:51;21.00;92.00
14182;DHT22;7171;50.936;6.764;2023-06-05T09:21:19;21.20;97.70
14182;DHT22;7171;50.936;6.764;2023-06-05T09:23:47;21.20;92.10
14182;DHT22;7171;50.936;6.764;2023-06-05T09:26:14;21.40;91.40
14182;DHT22;7171;50.936;6.764;2023-06-05T09:28:53;21.40;91.60
14182;DHT22;7171;50.936;6.764;2023-06-05T09:31:20;21.40;91.60
14182;DHT22;7171;50.936;6.764;2023-06-05T09:33:54;21.50;91.30
14182;DHT22;7171;50.936;6.764;2023-06-05T09:36:23;21.60;91.30
14182;DHT22;7171;50.936;6.764;2023-06-05T09:38:51;21.70;91.10
14182;DHT22;7171;50.936;6.764;2023-06-05T09:41:18;21.70;90.90
14182;DHT22;7171;50.936;6.764;2023-06-05T09:43:45;21.80;90.50
14182;DHT22;7171;50.936;6.764;2023-06-05T09:46:13;21.90;90.70
14182;DHT22;7171;50.936;6.764;2023-06-05T09:48:41;21.90;90.90
14182;DHT22;7171;50.936;6.764;2023-06-05T09:51:11;22.00;91.10
14182;DHT22;7171;50.936;6.764;2023-06-05T09:53:42;22.10;90.90
14182;DHT22;7171;50.936;6.764;2023-06-05T09:56:12;22.10;90.00
14182;DHT22;7171;50.936;6.764;2023-06-05T09:58:43;22.20;90.10
14182;DHT22;7171;50.936;6.764;2023-06-05T10:01:11;22.30;90.10
14182;DHT22;7171;50.936;6.764;2023-06-05T10:03:40;22.30;90.00
14182;DHT22;7171;50.936;6.764;2023-06-05T10:06:09;22.40;90.30
14182;DHT22;7171;50.936;6.764;2023-06-05T10:11:04;22.60;90.00
14182;DHT22;7171;50.936;6.764;2023-06-05T10:13:32;22.70;90.30
14182;DHT22;7171;50.936;6.764;2023-06-05T10:16:00;22.80;90.30
14182;DHT22;7171;50.936;6.764;2023-06-05T10:18:28;22.80;90.20
14182;DHT22;7171;50.936;6.764;2023-06-05T10:20:56;22.90;90.20
14182;DHT22;7171;50.936;6.764;2023-06-05T10:23:24;22.90;89.10
14182;DHT22;7171;50.936;6.764;2023-06-05T10:25:53;23.00;88.30
14182;DHT22;7171;50.936;6.764;2023-06-05T10:28:37;23.10;89.10
14182;DHT22;7171;50.936;6.764;2023-06-05T10:31:18;23.20;89.60
14182;DHT22;7171;50.936;6.764;2023-06-05T10:34:08;23.30;89.20
14182;DHT22;7171;50.936;6.764;2023-06-05T10:37:00;23.30;89.60
14182;DHT22;7171;50.936;6.764;2023-06-05T10:39:31;23.40;88.70
14182;DHT22;7171;50.936;6.764;2023-06-05T10:42:00;23.50;89.00
14182;DHT22;7171;50.936;6.764;2023-06-05T10:44:41;23.60;88.30
14182;DHT22;7171;50.936;6.764;2023-06-05T10:50:25;23.70;86.00
14182;DHT22;7171;50.936;6.764;2023-06-05T10:52:54;23.70;85.20
14182;DHT22;7171;50.936;6.764;2023-06-05T10:55:24;23.70;82.70
14182;DHT22;7171;50.936;6.764;2023-06-05T10:58:11;23.70;81.30
14182;DHT22;7171;50.936;6.764;2023-06-05T11:01:16;23.80;83.20
14182;DHT22;7171;50.936;6.764;2023-06-05T11:03:55;23.80;83.20
14182;DHT22;7171;50.936;6.764;2023-06-05T11:06:24;23.90;83.30
14182;DHT22;7171;50.936;6.764;2023-06-05T11:09:07;23.90;83.70
14182;DHT22;7171;50.936;6.764;2023-06-05T11:11:56;24.00;83.50
14182;DHT22;7171;50.936;6.764;2023-06-05T11:14:23;24.10;83.80
14182;DHT22;7171;50.936;6.764;2023-06-05T11:16:52;24.10;83.20
14182;DHT22;7171;50.936;6.764;2023-06-05T11:19:36;24.10;83.40
14182;DHT22;7171;50.936;6.764;2023-06-05T11:22:07;24.20;84.00
14182;DHT22;7171;50.936;6.764;2023-06-05T11:24:35;24.20;83.80
14182;DHT22;7171;50.936;6.764;2023-06-05T11:27:03;24.30;83.90
14182;DHT22;7171;50.936;6.764;2023-06-05T11:29:31;24.40;84.20
14182;DHT22;7171;50.936;6.764;2023-06-05T11:32:00;24.50;83.00
14182;DHT22;7171;50.936;6.764;2023-06-05T11:34:26;24.50;83.20
14182;DHT22;7171;50.936;6.764;2023-06-05T11:36:55;24.60;82.90
14182;DHT22;7171;50.936;6.764;2023-06-05T11:39:23;24.60;82.90
14182;DHT22;7171;50.936;6.764;2023-06-05T11:41:55;24.70;82.10
14182;DHT22;7171;50.936;6.764;2023-06-05T11:44:32;24.80;82.50
14182;DHT22;7171;50.936;6.764;2023-06-05T11:47:00;24.90;82.60
14182;DHT22;7171;50.936;6.764;2023-06-05T11:49:28;25.00;82.60
14182;DHT22;7171;50.936;6.764;2023-06-05T11:51:55;25.00;81.70
14182;DHT22;7171;50.936;6.764;2023-06-05T11:54:26;25.10;81.20
14182;DHT22;7171;50.936;6.764;2023-06-05T11:57:02;25.20;81.30
14182;DHT22;7171;50.936;6.764;2023-06-05T11:59:36;25.20;81.10
14182;DHT22;7171;50.936;6.764;2023-06-05T12:02:05;25.20;81.10
14182;DHT22;7171;50.936;6.764;2023-06-05T12:04:32;25.40;81.60
14182;DHT22;7171;50.936;6.764;2023-06-05T12:09:28;25.60;82.10
14182;DHT22;7171;50.936;6.764;2023-06-05T12:12:05;25.70;81.20
14182;DHT22;7171;50.936;6.764;2023-06-05T12:14:33;25.80;80.60
14182;DHT22;7171;50.936;6.764;2023-06-05T12:17:09;25.90;80.90
14182;DHT22;7171;50.936;6.764;2023-06-05T12:19:36;26.00;79.80
14182;DHT22;7171;50.936;6.764;2023-06-05T12:22:05;26.00;77.50
14182;DHT22;7171;50.936;6.764;2023-06-05T12:24:32;25.90;76.60
14182;DHT22;7171;50.936;6.764;2023-06-05T12:27:00;25.80;76.80
14182;DHT22;7171;50.936;6.764;2023-06-05T12:29:28;25.80;76.50
14182;DHT22;7171;50.936;6.764;2023-06-05T12:31:55;25.80;77.00
14182;DHT22;7171;50.936;6.764;2023-06-05T12:34:40;25.80;75.20
14182;DHT22;7171;50.936;6.764;2023-06-05T12:37:10;25.80;75.80
14182;DHT22;7171;50.936;6.764;2023-06-05T12:39:38;25.80;76.10
14182;DHT22;7171;50.936;6.764;2023-06-05T12:42:05;25.80;76.50
14182;DHT22;7171;50.936;6.764;2023-06-05T12:44:32;25.80;77.80
14182;DHT22;7171;50.936;6.764;2023-06-05T12:46:59;25.80;77.30
14182;DHT22;7171;50.936;6.764;2023-06-05T12:49:26;25.80;76.80
14182;DHT22;7171;50.936;6.764;2023-06-05T12:51:54;25.90;77.50
14182;DHT22;7171;50.936;6.764;2023-06-05T12:54:22;25.80;74.40
14182;DHT22;7171;50.936;6.764;2023-06-05T12:56:49;25.80;74.00
14182;DHT22;7171;50.936;6.764;2023-06-05T12:59:16;25.80;75.50
14182;DHT22;7171;50.936;6.764;2023-06-05T13:01:42;25.80;75.50
14182;DHT22;7171;50.936;6.764;2023-06-05T13:04:09;25.70;73.70
14182;DHT22;7171;50.936;6.764;2023-06-05T13:06:36;25.70;72.80
14182;DHT22;7171;50.936;6.764;2023-06-05T13:09:04;25.80;75.20
14182;DHT22;7171;50.936;6.764;2023-06-05T13:11:31;25.60;73.40
14182;DHT22;7171;50.936;6.764;2023-06-05T13:13:58;25.60;74.00
14182;DHT22;7171;50.936;6.764;2023-06-05T13:16:25;25.60;72.80
14182;DHT22;7171;50.936;6.764;2023-06-05T13:18:52;25.60;73.40
14182;DHT22;7171;50.936;6.764;2023-06-05T13:21:19;25.60;72.70
14182;DHT22;7171;50.936;6.764;2023-06-05T13:23:45;25.70;74.00
14182;DHT22;7171;50.936;6.764;2023-06-05T13:26:14;25.70;74.80
14182;DHT22;7171;50.936;6.764;2023-06-05T13:28:40;25.70;75.30
14182;DHT22;7171;50.936;6.764;2023-06-05T13:31:09;25.80;74.70
14182;DHT22;7171;50.936;6.764;2023-06-05T13:33:36;25.90;75.10
14182;DHT22;7171;50.936;6.764;2023-06-05T13:36:03;25.90;74.80
14182;DHT22;7171;50.936;6.764;2023-06-05T13:38:30;26.00;74.70
14182;DHT22;7171;50.936;6.764;2023-06-05T13:40:57;26.00;74.40
14182;DHT22;7171;50.936;6.764;2023-06-05T13:43:25;26.00;75.00
14182;DHT22;7171;50.936;6.764;2023-06-05T13:45:51;26.10;75.30
14182;DHT22;7171;50.936;6.764;2023-06-05T13:48:18;26.00;75.40
14182;DHT22;7171;50.936;6.764;2023-06-05T13:50:45;26.20;74.40
14182;DHT22;7171;50.936;6.764;2023-06-05T13:53:12;26.20;74.50
14182;DHT22;7171;50.936;6.764;2023-06-05T13:55:39;26.30;74.40
14182;DHT22;7171;50.936;6.764;2023-06-05T13:58:07;26.30;74.30
14182;DHT22;7171;50.936;6.764;2023-06-05T14:00:36;26.30;74.60
14182;DHT22;7171;50.936;6.764;2023-06-05T14:03:02;26.30;74.10
14182;DHT22;7171;50.936;6.764;2023-06-05T14:05:30;26.30;73.00
14182;DHT22;7171;50.936;6.764;2023-06-05T14:07:57;26.30;72.90
14182;DHT22;7171;50.936;6.764;2023-06-05T14:10:25;26.30;72.50
14182;DHT22;7171;50.936;6.764;2023-06-05T14:12:52;26.40;72.90
14182;DHT22;7171;50.936;6.764;2023-06-05T14:15:20;26.50;73.00
14182;DHT22;7171;50.936;6.764;2023-06-05T14:17:50;26.30;72.50
14182;DHT22;7171;50.936;6.764;2023-06-05T14:20:18;26.40;73.20
14182;DHT22;7171;50.936;6.764;2023-06-05T14:22:45;26.40;72.60
14182;DHT22;7171;50.936;6.764;2023-06-05T14:25:12;26.30;70.90
14182;DHT22;7171;50.936;6.764;2023-06-05T14:27:38;26.40;71.00
14182;DHT22;7171;50.936;6.764;2023-06-05T14:30:06;26.50;71.90
14182;DHT22;7171;50.936;6.764;2023-06-05T14:32:34;26.40;72.20
14182;DHT22;7171;50.936;6.764;2023-06-05T14:35:02;26.40;72.20
14182;DHT22;7171;50.936;6.764;2023-06-05T14:37:29;26.40;71.20
14182;DHT22;7171;50.936;6.764;2023-06-05T14:39:56;26.30;70.80
14182;DHT22;7171;50.936;6.764;2023-06-05T14:42:23;26.40;71.40
14182;DHT22;7171;50.936;6.764;2023-06-05T14:44:50;26.40;71.20
14182;DHT22;7171;50.936;6.764;2023-06-05T14:47:17;26.50;70.70
14182;DHT22;7171;50.936;6.764;2023-06-05T14:49:43;26.40;71.20
14182;DHT22;7171;50.936;6.764;2023-06-05T14:52:11;26.50;71.10
14182;DHT22;7171;50.936;6.764;2023-06-05T14:54:38;26.40;70.30
14182;DHT22;7171;50.936;6.764;2023-06-05T14:57:05;26.40;70.50
14182;DHT22;7171;50.936;6.764;2023-06-05T14:59:32;26.40;70.40
14182;DHT22;7171;50.936;6.764;2023-06-05T15:01:59;26.40;71.50
14182;DHT22;7171;50.936;6.764;2023-06-05T15:04:26;26.40;71.20
14182;DHT22;7171;50.936;6.764;2023-06-05T15:06:54;26.60;70.50
14182;DHT22;7171;50.936;6.764;2023-06-05T15:09:22;26.60;71.10
14182;DHT22;7171;50.936;6.764;2023-06-05T15:11:49;26.60;69.40
14182;DHT22;7171;50.936;6.764;2023-06-05T15:14:16;26.50;70.00
14182;DHT22;7171;50.936;6.764;2023-06-05T15:16:43;26.50;70.10
14182;DHT22;7171;50.936;6.764;2023-06-05T15:19:10;26.50;70.30
14182;DHT22;7171;50.936;6.764;2023-06-05T15:21:37;26.50;71.40
14182;DHT22;7171;50.936;6.764;2023-06-05T15:24:04;26.60;71.40
14182;DHT22;7171;50.936;6.764;2023-06-05T15:26:32;26.60;70.70
14182;DHT22;7171;50.936;6.764;2023-06-05T15:28:59;26.60;71.00
14182;DHT22;7171;50.936;6.764;2023-06-05T15:31:26;26.60;69.20
14182;DHT22;7171;50.936;6.764;2023-06-05T15:33:52;26.60;69.80
14182;DHT22;7171;50.936;6.764;2023-06-05T15:36:19;26.60;70.10
14182;DHT22;7171;50.936;6.764;2023-06-05T15:38:46;26.50;69.90
14182;DHT22;7171;50.936;6.764;2023-06-05T15:41:13;26.60;70.00
14182;DHT22;7171;50.936;6.764;2023-06-05T15:43:41;26.60;69.80
14182;DHT22;7171;50.936;6.764;2023-06-05T15:46:07;26.60;68.80
14182;DHT22;7171;50.936;6.764;2023-06-05T15:48:34;26.50;69.80
14182;DHT22;7171;50.936;6.764;2023-06-05T15:51:01;26.60;69.80
14182;DHT22;7171;50.936;6.764;2023-06-05T15:53:29;26.50;68.80
14182;DHT22;7171;50.936;6.764;2023-06-05T15:55:56;26.50;69.40
14182;DHT22;7171;50.936;6.764;2023-06-05T15:58:23;26.50;69.10
14182;DHT22;7171;50.936;6.764;2023-06-05T16:00:51;26.50;69.30
14182;DHT22;7171;50.936;6.764;2023-06-05T16:03:18;26.40;69.40
14182;DHT22;7171;50.936;6.764;2023-06-05T16:05:45;26.40;68.90
14182;DHT22;7171;50.936;6.764;2023-06-05T16:08:12;26.40;68.30
14182;DHT22;7171;50.936;6.764;2023-06-05T16:10:39;26.30;68.30
14182;DHT22;7171;50.936;6.764;2023-06-05T16:13:05;26.30;68.70
14182;DHT22;7171;50.936;6.764;2023-06-05T16:15:35;26.30;68.40
14182;DHT22;7171;50.936;6.764;2023-06-05T16:18:03;26.20;67.90
14182;DHT22;7171;50.936;6.764;2023-06-05T16:20:30;26.00;67.50
14182;DHT22;7171;50.936;6.764;2023-06-05T16:22:57;26.00;68.60
14182;DHT22;7171;50.936;6.764;2023-06-05T16:25:24;25.80;68.60